sensor_id;sensor_type;location;lat;lon;timestamp;P1;durP1;ratioP1;P2;durP2;ratioP2
31728;SDS011;18309;43.658;1.312;2023-05-10T00:01:04;19.98;;;3.20;;
31728;SDS011;18309;43.658;1.312;2023-05-10T00:03:29;29.27;;;3.78;;
31728;SDS011;18309;43.658;1.312;2023-05-10T00:05:55;29.17;;;3.78;;
31728;SDS011;18309;43.658;1.312;2023-05-10T00:08:21;33.50;;;4.50;;
31728;SDS011;18309;43.658;1.312;2023-05-10T00:10:47;22.58;;;3.58;;
31728;SDS011;18309;43.658;1.312;2023-05-10T00:13:13;26.42;;;3.60;;
31728;SDS011;18309;43.658;1.312;2023-05-10T00:15:39;28.45;;;4.15;;
31728;SDS011;18309;43.658;1.312;2023-05-10T00:18:05;21.33;;;3.30;;
31728;SDS011;18309;43.658;1.312;2023-05-10T00:20:31;24.17;;;3.55;;
31728;SDS011;18309;43.658;1.312;2023-05-10T00:22:56;24.75;;;4.57;;
31728;SDS011;18309;43.658;1.312;2023-05-10T00:25:22;26.70;;;4.05;;
31728;SDS011;18309;43.658;1.312;2023-05-10T00:27:48;27.45;;;4.28;;
31728;SDS011;18309;43.658;1.312;2023-05-10T00:30:14;23.45;;;4.57;;
31728;SDS011;18309;43.658;1.312;2023-05-10T00:32:40;16.52;;;3.60;;
31728;SDS011;18309;43.658;1.312;2023-05-10T00:35:07;37.33;;;4.50;;
31728;SDS011;18309;43.658;1.312;2023-05-10T00:37:33;27.52;;;3.97;;
31728;SDS011;18309;43.658;1.312;2023-05-10T00:39:59;26.63;;;3.85;;
31728;SDS011;18309;43.658;1.312;2023-05-10T00:42:25;18.73;;;3.55;;
31728;SDS011;18309;43.658;1.312;2023-05-10T00:44:50;28.65;;;4.32;;
31728;SDS011;18309;43.658;1.312;2023-05-10T00:47:16;31.95;;;4.82;;
31728;SDS011;18309;43.658;1.312;2023-05-10T00:49:42;23.40;;;4.00;;
31728;SDS011;18309;43.658;1.312;2023-05-10T00:52:08;29.52;;;4.50;;
31728;SDS011;18309;43.658;1.312;2023-05-10T00:54:34;28.02;;;4.15;;
31728;SDS011;18309;43.658;1.312;2023-05-10T00:57:01;33.83;;;5.72;;
31728;SDS011;18309;43.658;1.312;2023-05-10T00:59:28;26.95;;;4.18;;
31728;SDS011;18309;43.658;1.312;2023-05-10T01:01:54;32.80;;;3.80;;
31728;SDS011;18309;43.658;1.312;2023-05-10T01:04:20;21.33;;;3.58;;
31728;SDS011;18309;43.658;1.312;2023-05-10T01:06:50;29.37;;;4.17;;
31728;SDS011;18309;43.658;1.312;2023-05-10T01:09:16;30.70;;;4.18;;
31728;SDS011;18309;43.658;1.312;2023-05-10T01:11:43;25.00;;;3.97;;
31728;SDS011;18309;43.658;1.312;2023-05-10T01:14:09;30.73;;;3.60;;
31728;SDS011;18309;43.658;1.312;2023-05-10T01:16:40;30.98;;;4.18;;
31728;SDS011;18309;43.658;1.312;2023-05-10T01:19:08;27.73;;;4.40;;
31728;SDS011;18309;43.658;1.312;2023-05-10T01:21:57;31.20;;;4.00;;
31728;SDS011;18309;43.658;1.312;2023-05-10T01:30:25;32.22;;;4.03;;
31728;SDS011;18309;43.658;1.312;2023-05-10T01:35:47;27.65;;;4.43;;
31728;SDS011;18309;43.658;1.312;2023-05-10T01:44:06;23.88;;;3.30;;
31728;SDS011;18309;43.658;1.312;2023-05-10T01:46:43;29.60;;;3.78;;
31728;SDS011;18309;43.658;1.312;2023-05-10T01:49:15;33.92;;;4.75;;
31728;SDS011;18309;43.658;1.312;2023-05-10T01:51:51;21.98;;;4.10;;
31728;SDS011;18309;43.658;1.312;2023-05-10T01:54:20;30.48;;;3.05;;
31728;SDS011;18309;43.658;1.312;2023-05-10T01:56:48;33.42;;;4.30;;
31728;SDS011;18309;43.658;1.312;2023-05-10T01:59:20;21.38;;;3.00;;
31728;SDS011;18309;43.658;1.312;2023-05-10T02:01:47;22.35;;;3.95;;
31728;SDS011;18309;43.658;1.312;2023-05-10T02:04:16;32.35;;;3.67;;
31728;SDS011;18309;43.658;1.312;2023-05-10T02:06:44;32.80;;;5.43;;
31728;SDS011;18309;43.658;1.312;2023-05-10T02:09:11;29.35;;;4.38;;
31728;SDS011;18309;43.658;1.312;2023-05-10T02:11:38;27.15;;;3.72;;
31728;SDS011;18309;43.658;1.312;2023-05-10T02:14:07;33.17;;;4.25;;
31728;SDS011;18309;43.658;1.312;2023-05-10T02:16:34;34.22;;;4.55;;
31728;SDS011;18309;43.658;1.312;2023-05-10T02:19:01;29.58;;;4.30;;
31728;SDS011;18309;43.658;1.312;2023-05-10T02:21:28;30.38;;;4.28;;
31728;SDS011;18309;43.658;1.312;2023-05-10T02:23:55;30.17;;;3.97;;
31728;SDS011;18309;43.658;1.312;2023-05-10T02:26:23;21.33;;;3.47;;
31728;SDS011;18309;43.658;1.312;2023-05-10T02:28:51;26.75;;;4.65;;
31728;SDS011;18309;43.658;1.312;2023-05-10T02:31:18;32.78;;;4.40;;
31728;SDS011;18309;43.658;1.312;2023-05-10T02:33:45;24.42;;;3.53;;
31728;SDS011;18309;43.658;1.312;2023-05-10T02:36:12;27.02;;;3.92;;
31728;SDS011;18309;43.658;1.312;2023-05-10T02:38:38;32.65;;;4.68;;
31728;SDS011;18309;43.658;1.312;2023-05-10T02:41:05;30.15;;;3.85;;
31728;SDS011;18309;43.658;1.312;2023-05-10T02:43:33;32.28;;;4.07;;
31728;SDS011;18309;43.658;1.312;2023-05-10T02:46:00;27.08;;;3.88;;
31728;SDS011;18309;43.658;1.312;2023-05-10T02:48:27;27.80;;;3.92;;
31728;SDS011;18309;43.658;1.312;2023-05-10T02:50:53;32.58;;;3.75;;
31728;SDS011;18309;43.658;1.312;2023-05-10T02:53:22;21.77;;;3.67;;
31728;SDS011;18309;43.658;1.312;2023-05-10T02:55:54;33.17;;;4.43;;
31728;SDS011;18309;43.658;1.312;2023-05-10T02:58:24;22.52;;;3.92;;
31728;SDS011;18309;43.658;1.312;2023-05-10T03:00:50;20.20;;;3.15;;
31728;SDS011;18309;43.658;1.312;2023-05-10T03:03:16;24.48;;;3.05;;
31728;SDS011;18309;43.658;1.312;2023-05-10T03:05:41;26.05;;;3.83;;
31728;SDS011;18309;43.658;1.312;2023-05-10T03:08:07;17.33;;;3.33;;
31728;SDS011;18309;43.658;1.312;2023-05-10T03:10:33;22.58;;;3.03;;
31728;SDS011;18309;43.658;1.312;2023-05-10T03:21:20;19.45;;;2.45;;
31728;SDS011;18309;43.658;1.312;2023-05-10T03:23:51;20.77;;;2.40;;
31728;SDS011;18309;43.658;1.312;2023-05-10T03:26:25;18.00;;;2.47;;
31728;SDS011;18309;43.658;1.312;2023-05-10T03:28:52;21.17;;;3.08;;
31728;SDS011;18309;43.658;1.312;2023-05-10T03:31:18;18.58;;;2.88;;
31728;SDS011;18309;43.658;1.312;2023-05-10T03:33:47;19.15;;;2.50;;
31728;SDS011;18309;43.658;1.312;2023-05-10T03:36:14;20.67;;;2.22;;
31728;SDS011;18309;43.658;1.312;2023-05-10T03:38:40;23.70;;;3.47;;
31728;SDS011;18309;43.658;1.312;2023-05-10T03:41:06;27.00;;;3.15;;
31728;SDS011;18309;43.658;1.312;2023-05-10T03:43:31;26.70;;;3.78;;
31728;SDS011;18309;43.658;1.312;2023-05-10T03:45:57;23.33;;;2.90;;
31728;SDS011;18309;43.658;1.312;2023-05-10T03:48:23;21.85;;;2.47;;
31728;SDS011;18309;43.658;1.312;2023-05-10T03:50:48;18.85;;;2.50;;
31728;SDS011;18309;43.658;1.312;2023-05-10T03:53:14;15.45;;;2.10;;
31728;SDS011;18309;43.658;1.312;2023-05-10T03:55:40;14.70;;;2.00;;
31728;SDS011;18309;43.658;1.312;2023-05-10T03:58:06;22.33;;;3.45;;
31728;SDS011;18309;43.658;1.312;2023-05-10T04:00:32;32.90;;;3.03;;
31728;SDS011;18309;43.658;1.312;2023-05-10T04:02:58;18.52;;;2.85;;
31728;SDS011;18309;43.658;1.312;2023-05-10T04:05:23;16.35;;;2.42;;
31728;SDS011;18309;43.658;1.312;2023-05-10T04:07:49;20.05;;;2.97;;
31728;SDS011;18309;43.658;1.312;2023-05-10T04:10:16;19.27;;;2.92;;
31728;SDS011;18309;43.658;1.312;2023-05-10T04:12:41;17.92;;;2.70;;
31728;SDS011;18309;43.658;1.312;2023-05-10T04:15:07;22.13;;;3.38;;
31728;SDS011;18309;43.658;1.312;2023-05-10T04:17:33;23.27;;;3.08;;
31728;SDS011;18309;43.658;1.312;2023-05-10T04:19:59;19.25;;;2.45;;
31728;SDS011;18309;43.658;1.312;2023-05-10T04:22:25;21.08;;;2.45;;
31728;SDS011;18309;43.658;1.312;2023-05-10T04:24:50;18.08;;;3.05;;
31728;SDS011;18309;43.658;1.312;2023-05-10T04:27:16;18.77;;;3.25;;
31728;SDS011;18309;43.658;1.312;2023-05-10T04:29:42;19.40;;;3.15;;
31728;SDS011;18309;43.658;1.312;2023-05-10T04:32:07;21.05;;;3.30;;
31728;SDS011;18309;43.658;1.312;2023-05-10T04:34:35;24.15;;;2.72;;
31728;SDS011;18309;43.658;1.312;2023-05-10T04:37:01;25.77;;;3.47;;
31728;SDS011;18309;43.658;1.312;2023-05-10T04:39:26;22.48;;;3.42;;
31728;SDS011;18309;43.658;1.312;2023-05-10T04:41:52;22.13;;;3.53;;
31728;SDS011;18309;43.658;1.312;2023-05-10T04:44:18;22.35;;;3.53;;
31728;SDS011;18309;43.658;1.312;2023-05-10T04:46:43;30.08;;;3.28;;
31728;SDS011;18309;43.658;1.312;2023-05-10T04:49:09;19.98;;;3.15;;
31728;SDS011;18309;43.658;1.312;2023-05-10T04:51:35;23.30;;;3.53;;
31728;SDS011;18309;43.658;1.312;2023-05-10T04:54:00;28.40;;;3.53;;
31728;SDS011;18309;43.658;1.312;2023-05-10T04:56:26;28.83;;;3.15;;
31728;SDS011;18309;43.658;1.312;2023-05-10T04:58:52;17.63;;;2.78;;
31728;SDS011;18309;43.658;1.312;2023-05-10T05:01:17;27.05;;;3.85;;
31728;SDS011;18309;43.658;1.312;2023-05-10T05:03:43;34.60;;;4.28;;
31728;SDS011;18309;43.658;1.312;2023-05-10T05:06:09;24.30;;;3.67;;
31728;SDS011;18309;43.658;1.312;2023-05-10T05:08:34;20.55;;;3.05;;
31728;SDS011;18309;43.658;1.312;2023-05-10T05:11:00;28.70;;;3.75;;
31728;SDS011;18309;43.658;1.312;2023-05-10T05:13:26;26.55;;;3.33;;
31728;SDS011;18309;43.658;1.312;2023-05-10T05:15:51;25.15;;;3.25;;
31728;SDS011;18309;43.658;1.312;2023-05-10T05:18:18;27.25;;;3.95;;
31728;SDS011;18309;43.658;1.312;2023-05-10T05:20:44;23.58;;;3.03;;
31728;SDS011;18309;43.658;1.312;2023-05-10T05:23:09;20.80;;;2.78;;
31728;SDS011;18309;43.658;1.312;2023-05-10T05:25:35;32.33;;;3.85;;
31728;SDS011;18309;43.658;1.312;2023-05-10T05:28:01;16.90;;;2.80;;
31728;SDS011;18309;43.658;1.312;2023-05-10T05:30:27;21.00;;;3.22;;
31728;SDS011;18309;43.658;1.312;2023-05-10T05:32:52;26.52;;;4.10;;
31728;SDS011;18309;43.658;1.312;2023-05-10T05:35:18;29.73;;;4.30;;
31728;SDS011;18309;43.658;1.312;2023-05-10T05:37:44;38.25;;;3.75;;
31728;SDS011;18309;43.658;1.312;2023-05-10T05:40:12;24.30;;;2.78;;
31728;SDS011;18309;43.658;1.312;2023-05-10T05:42:38;21.98;;;3.17;;
31728;SDS011;18309;43.658;1.312;2023-05-10T05:45:03;20.80;;;3.40;;
31728;SDS011;18309;43.658;1.312;2023-05-10T05:47:30;24.63;;;3.83;;
31728;SDS011;18309;43.658;1.312;2023-05-10T05:49:56;24.60;;;3.17;;
31728;SDS011;18309;43.658;1.312;2023-05-10T05:52:21;28.15;;;3.20;;
31728;SDS011;18309;43.658;1.312;2023-05-10T05:54:47;24.48;;;4.35;;
31728;SDS011;18309;43.658;1.312;2023-05-10T05:57:13;24.10;;;3.05;;
31728;SDS011;18309;43.658;1.312;2023-05-10T05:59:38;29.67;;;3.45;;
31728;SDS011;18309;43.658;1.312;2023-05-10T06:02:08;24.30;;;3.30;;
31728;SDS011;18309;43.658;1.312;2023-05-10T06:04:35;24.42;;;3.03;;
31728;SDS011;18309;43.658;1.312;2023-05-10T06:07:01;22.85;;;3.30;;
31728;SDS011;18309;43.658;1.312;2023-05-10T06:09:27;22.13;;;2.70;;
31728;SDS011;18309;43.658;1.312;2023-05-10T06:11:52;16.20;;;2.58;;
31728;SDS011;18309;43.658;1.312;2023-05-10T06:14:20;30.73;;;3.97;;
31728;SDS011;18309;43.658;1.312;2023-05-10T06:16:45;31.88;;;3.65;;
31728;SDS011;18309;43.658;1.312;2023-05-10T06:19:11;27.88;;;3.42;;
31728;SDS011;18309;43.658;1.312;2023-05-10T06:21:37;24.80;;;3.58;;
31728;SDS011;18309;43.658;1.312;2023-05-10T06:24:03;31.52;;;3.75;;
31728;SDS011;18309;43.658;1.312;2023-05-10T06:26:29;27.20;;;3.42;;
31728;SDS011;18309;43.658;1.312;2023-05-10T06:28:55;20.65;;;3.35;;
31728;SDS011;18309;43.658;1.312;2023-05-10T06:31:20;26.30;;;4.05;;
31728;SDS011;18309;43.658;1.312;2023-05-10T06:33:46;26.38;;;3.72;;
31728;SDS011;18309;43.658;1.312;2023-05-10T06:36:12;30.27;;;4.20;;
31728;SDS011;18309;43.658;1.312;2023-05-10T06:38:38;35.28;;;4.25;;
31728;SDS011;18309;43.658;1.312;2023-05-10T06:41:04;23.00;;;3.90;;
31728;SDS011;18309;43.658;1.312;2023-05-10T06:43:30;24.15;;;3.70;;
31728;SDS011;18309;43.658;1.312;2023-05-10T06:45:56;20.92;;;3.67;;
31728;SDS011;18309;43.658;1.312;2023-05-10T06:48:22;22.20;;;3.33;;
31728;SDS011;18309;43.658;1.312;2023-05-10T06:50:48;27.10;;;3.88;;
31728;SDS011;18309;43.658;1.312;2023-05-10T06:53:13;24.35;;;3.97;;
31728;SDS011;18309;43.658;1.312;2023-05-10T06:55:39;40.95;;;4.43;;
31728;SDS011;18309;43.658;1.312;2023-05-10T06:58:05;26.98;;;3.28;;
31728;SDS011;18309;43.658;1.312;2023-05-10T07:00:31;32.55;;;3.80;;
31728;SDS011;18309;43.658;1.312;2023-05-10T07:02:56;27.63;;;3.25;;
31728;SDS011;18309;43.658;1.312;2023-05-10T07:05:23;27.50;;;4.70;;
31728;SDS011;18309;43.658;1.312;2023-05-10T07:07:49;33.75;;;4.05;;
31728;SDS011;18309;43.658;1.312;2023-05-10T07:10:14;55.10;;;5.07;;
31728;SDS011;18309;43.658;1.312;2023-05-10T07:12:40;25.63;;;3.38;;
31728;SDS011;18309;43.658;1.312;2023-05-10T07:15:06;31.33;;;4.70;;
31728;SDS011;18309;43.658;1.312;2023-05-10T07:17:32;24.48;;;3.55;;
31728;SDS011;18309;43.658;1.312;2023-05-10T07:19:58;23.33;;;4.03;;
31728;SDS011;18309;43.658;1.312;2023-05-10T07:22:25;46.85;;;6.47;;
31728;SDS011;18309;43.658;1.312;2023-05-10T07:24:51;29.13;;;4.05;;
31728;SDS011;18309;43.658;1.312;2023-05-10T07:27:16;31.92;;;3.92;;
31728;SDS011;18309;43.658;1.312;2023-05-10T07:29:42;35.72;;;4.13;;
31728;SDS011;18309;43.658;1.312;2023-05-10T07:32:07;56.60;;;6.30;;
31728;SDS011;18309;43.658;1.312;2023-05-10T07:34:33;47.53;;;5.00;;
31728;SDS011;18309;43.658;1.312;2023-05-10T07:36:59;31.77;;;5.32;;
31728;SDS011;18309;43.658;1.312;2023-05-10T07:39:25;36.08;;;3.97;;
31728;SDS011;18309;43.658;1.312;2023-05-10T07:41:52;38.67;;;4.53;;
31728;SDS011;18309;43.658;1.312;2023-05-10T07:44:17;33.42;;;4.32;;
31728;SDS011;18309;43.658;1.312;2023-05-10T07:46:45;25.83;;;3.75;;
31728;SDS011;18309;43.658;1.312;2023-05-10T07:49:11;32.00;;;4.22;;
31728;SDS011;18309;43.658;1.312;2023-05-10T07:51:37;32.20;;;4.05;;
31728;SDS011;18309;43.658;1.312;2023-05-10T07:54:02;18.95;;;2.72;;
31728;SDS011;18309;43.658;1.312;2023-05-10T07:56:29;28.77;;;3.88;;
31728;SDS011;18309;43.658;1.312;2023-05-10T07:58:56;28.67;;;4.15;;
31728;SDS011;18309;43.658;1.312;2023-05-10T08:01:29;27.55;;;3.63;;
31728;SDS011;18309;43.658;1.312;2023-05-10T08:03:56;27.10;;;3.72;;
31728;SDS011;18309;43.658;1.312;2023-05-10T08:06:22;21.00;;;3.22;;
31728;SDS011;18309;43.658;1.312;2023-05-10T08:08:48;41.53;;;4.40;;
31728;SDS011;18309;43.658;1.312;2023-05-10T08:11:18;62.15;;;6.78;;
31728;SDS011;18309;43.658;1.312;2023-05-10T08:13:45;52.30;;;4.55;;
31728;SDS011;18309;43.658;1.312;2023-05-10T08:16:11;26.55;;;4.43;;
31728;SDS011;18309;43.658;1.312;2023-05-10T08:18:38;29.90;;;4.05;;
31728;SDS011;18309;43.658;1.312;2023-05-10T08:21:05;38.58;;;4.13;;
31728;SDS011;18309;43.658;1.312;2023-05-10T08:23:32;30.13;;;4.05;;
31728;SDS011;18309;43.658;1.312;2023-05-10T08:25:58;25.27;;;2.75;;
31728;SDS011;18309;43.658;1.312;2023-05-10T08:28:24;22.70;;;3.88;;
31728;SDS011;18309;43.658;1.312;2023-05-10T08:30:50;26.58;;;3.25;;
31728;SDS011;18309;43.658;1.312;2023-05-10T08:33:17;21.08;;;2.85;;
31728;SDS011;18309;43.658;1.312;2023-05-10T08:35:43;21.23;;;3.00;;
31728;SDS011;18309;43.658;1.312;2023-05-10T08:38:08;23.15;;;3.13;;
31728;SDS011;18309;43.658;1.312;2023-05-10T08:40:34;26.58;;;3.08;;
31728;SDS011;18309;43.658;1.312;2023-05-10T08:45:36;24.98;;;3.63;;
31728;SDS011;18309;43.658;1.312;2023-05-10T08:48:12;26.33;;;2.80;;
31728;SDS011;18309;43.658;1.312;2023-05-10T08:50:40;18.92;;;3.40;;
31728;SDS011;18309;43.658;1.312;2023-05-10T08:53:11;21.45;;;2.92;;
31728;SDS011;18309;43.658;1.312;2023-05-10T08:55:38;23.38;;;3.00;;
31728;SDS011;18309;43.658;1.312;2023-05-10T08:58:08;18.30;;;2.78;;
31728;SDS011;18309;43.658;1.312;2023-05-10T09:00:34;24.83;;;2.67;;
31728;SDS011;18309;43.658;1.312;2023-05-10T09:03:02;18.95;;;3.30;;
31728;SDS011;18309;43.658;1.312;2023-05-10T09:05:29;23.48;;;3.30;;
31728;SDS011;18309;43.658;1.312;2023-05-10T09:07:55;17.30;;;2.33;;
31728;SDS011;18309;43.658;1.312;2023-05-10T09:10:21;15.10;;;2.20;;
31728;SDS011;18309;43.658;1.312;2023-05-10T09:12:47;24.20;;;3.58;;
31728;SDS011;18309;43.658;1.312;2023-05-10T09:15:16;25.10;;;2.90;;
31728;SDS011;18309;43.658;1.312;2023-05-10T09:17:44;17.83;;;2.28;;
31728;SDS011;18309;43.658;1.312;2023-05-10T09:20:11;18.15;;;3.35;;
31728;SDS011;18309;43.658;1.312;2023-05-10T09:22:37;22.90;;;3.33;;
31728;SDS011;18309;43.658;1.312;2023-05-10T09:25:03;27.48;;;3.47;;
31728;SDS011;18309;43.658;1.312;2023-05-10T09:27:33;27.10;;;3.03;;
31728;SDS011;18309;43.658;1.312;2023-05-10T09:30:00;28.20;;;3.72;;
31728;SDS011;18309;43.658;1.312;2023-05-10T09:32:39;24.15;;;3.10;;
31728;SDS011;18309;43.658;1.312;2023-05-10T09:35:13;20.77;;;3.20;;
31728;SDS011;18309;43.658;1.312;2023-05-10T09:37:40;38.97;;;4.45;;
31728;SDS011;18309;43.658;1.312;2023-05-10T09:40:18;25.95;;;3.75;;
31728;SDS011;18309;43.658;1.312;2023-05-10T09:45:24;23.58;;;3.50;;
31728;SDS011;18309;43.658;1.312;2023-05-10T09:47:51;42.78;;;4.45;;
31728;SDS011;18309;43.658;1.312;2023-05-10T09:50:17;33.20;;;4.07;;
31728;SDS011;18309;43.658;1.312;2023-05-10T09:58:02;20.15;;;2.65;;
31728;SDS011;18309;43.658;1.312;2023-05-10T10:00:34;38.80;;;4.22;;
31728;SDS011;18309;43.658;1.312;2023-05-10T10:03:04;19.30;;;2.78;;
31728;SDS011;18309;43.658;1.312;2023-05-10T10:05:30;25.63;;;2.20;;
31728;SDS011;18309;43.658;1.312;2023-05-10T10:07:58;14.27;;;2.75;;
31728;SDS011;18309;43.658;1.312;2023-05-10T10:10:25;14.15;;;2.30;;
31728;SDS011;18309;43.658;1.312;2023-05-10T10:12:51;16.20;;;2.50;;
31728;SDS011;18309;43.658;1.312;2023-05-10T10:15:18;19.90;;;3.05;;
31728;SDS011;18309;43.658;1.312;2023-05-10T10:17:45;23.40;;;2.63;;
31728;SDS011;18309;43.658;1.312;2023-05-10T10:20:13;37.33;;;4.15;;
31728;SDS011;18309;43.658;1.312;2023-05-10T10:22:40;49.13;;;5.32;;
31728;SDS011;18309;43.658;1.312;2023-05-10T10:25:06;38.85;;;3.35;;
31728;SDS011;18309;43.658;1.312;2023-05-10T10:27:36;22.90;;;3.15;;
31728;SDS011;18309;43.658;1.312;2023-05-10T10:35:29;22.60;;;3.00;;
31728;SDS011;18309;43.658;1.312;2023-05-10T10:37:56;13.65;;;2.72;;
31728;SDS011;18309;43.658;1.312;2023-05-10T10:40:28;9.50;;;2.10;;
31728;SDS011;18309;43.658;1.312;2023-05-10T10:42:55;16.38;;;2.92;;
31728;SDS011;18309;43.658;1.312;2023-05-10T10:45:23;18.38;;;2.90;;
31728;SDS011;18309;43.658;1.312;2023-05-10T10:47:53;14.93;;;2.75;;
31728;SDS011;18309;43.658;1.312;2023-05-10T10:50:44;21.13;;;2.45;;
31728;SDS011;18309;43.658;1.312;2023-05-10T10:53:11;31.35;;;3.08;;
31728;SDS011;18309;43.658;1.312;2023-05-10T10:55:44;15.73;;;2.50;;
31728;SDS011;18309;43.658;1.312;2023-05-10T10:58:12;17.23;;;2.30;;
31728;SDS011;18309;43.658;1.312;2023-05-10T11:01:14;17.15;;;2.90;;
31728;SDS011;18309;43.658;1.312;2023-05-10T11:03:54;20.60;;;2.33;;
31728;SDS011;18309;43.658;1.312;2023-05-10T11:06:33;13.52;;;3.22;;
31728;SDS011;18309;43.658;1.312;2023-05-10T11:09:09;14.60;;;2.53;;
31728;SDS011;18309;43.658;1.312;2023-05-10T11:11:36;17.23;;;2.35;;
31728;SDS011;18309;43.658;1.312;2023-05-10T11:14:17;13.95;;;1.75;;
31728;SDS011;18309;43.658;1.312;2023-05-10T11:16:46;21.05;;;2.38;;
31728;SDS011;18309;43.658;1.312;2023-05-10T11:19:12;21.40;;;3.15;;
31728;SDS011;18309;43.658;1.312;2023-05-10T11:21:46;19.48;;;2.90;;
31728;SDS011;18309;43.658;1.312;2023-05-10T11:24:13;13.45;;;2.95;;
31728;SDS011;18309;43.658;1.312;2023-05-10T11:26:40;16.88;;;2.58;;
31728;SDS011;18309;43.658;1.312;2023-05-10T11:29:07;8.70;;;1.42;;
31728;SDS011;18309;43.658;1.312;2023-05-10T11:31:33;11.18;;;1.33;;
31728;SDS011;18309;43.658;1.312;2023-05-10T11:33:59;8.32;;;1.60;;
31728;SDS011;18309;43.658;1.312;2023-05-10T11:36:32;11.50;;;1.30;;
31728;SDS011;18309;43.658;1.312;2023-05-10T11:38:59;11.38;;;1.48;;
31728;SDS011;18309;43.658;1.312;2023-05-10T11:41:25;6.25;;;1.00;;
31728;SDS011;18309;43.658;1.312;2023-05-10T11:43:53;9.55;;;1.10;;
31728;SDS011;18309;43.658;1.312;2023-05-10T11:46:21;7.32;;;0.95;;
31728;SDS011;18309;43.658;1.312;2023-05-10T11:48:52;12.15;;;1.20;;
31728;SDS011;18309;43.658;1.312;2023-05-10T11:51:20;10.45;;;1.50;;
31728;SDS011;18309;43.658;1.312;2023-05-10T11:53:50;8.38;;;1.55;;
31728;SDS011;18309;43.658;1.312;2023-05-10T11:56:19;7.80;;;1.77;;
31728;SDS011;18309;43.658;1.312;2023-05-10T11:58:53;7.93;;;1.55;;
31728;SDS011;18309;43.658;1.312;2023-05-10T12:01:23;5.28;;;0.85;;
31728;SDS011;18309;43.658;1.312;2023-05-10T12:03:50;6.05;;;0.98;;
31728;SDS011;18309;43.658;1.312;2023-05-10T12:06:18;10.73;;;0.90;;
31728;SDS011;18309;43.658;1.312;2023-05-10T12:08:45;15.98;;;1.30;;
31728;SDS011;18309;43.658;1.312;2023-05-10T12:11:12;8.73;;;1.73;;
31728;SDS011;18309;43.658;1.312;2023-05-10T12:13:42;6.45;;;1.45;;
31728;SDS011;18309;43.658;1.312;2023-05-10T12:16:21;8.20;;;1.38;;
31728;SDS011;18309;43.658;1.312;2023-05-10T12:18:48;41.03;;;4.18;;
31728;SDS011;18309;43.658;1.312;2023-05-10T12:21:15;17.83;;;1.85;;
31728;SDS011;18309;43.658;1.312;2023-05-10T12:23:41;15.52;;;1.90;;
31728;SDS011;18309;43.658;1.312;2023-05-10T12:26:10;11.27;;;1.90;;
31728;SDS011;18309;43.658;1.312;2023-05-10T12:28:36;40.38;;;3.03;;
31728;SDS011;18309;43.658;1.312;2023-05-10T12:31:02;21.50;;;2.10;;
31728;SDS011;18309;43.658;1.312;2023-05-10T12:33:39;21.15;;;2.35;;
31728;SDS011;18309;43.658;1.312;2023-05-10T12:36:09;10.85;;;1.50;;
31728;SDS011;18309;43.658;1.312;2023-05-10T12:38:36;8.43;;;1.80;;
31728;SDS011;18309;43.658;1.312;2023-05-10T12:41:06;11.50;;;1.48;;
31728;SDS011;18309;43.658;1.312;2023-05-10T12:43:34;8.45;;;1.23;;
31728;SDS011;18309;43.658;1.312;2023-05-10T12:46:14;16.25;;;1.90;;
31728;SDS011;18309;43.658;1.312;2023-05-10T12:48:41;30.92;;;3.45;;
31728;SDS011;18309;43.658;1.312;2023-05-10T12:51:08;15.02;;;1.33;;
31728;SDS011;18309;43.658;1.312;2023-05-10T12:53:35;17.33;;;1.73;;
31728;SDS011;18309;43.658;1.312;2023-05-10T12:56:01;5.13;;;0.98;;
31728;SDS011;18309;43.658;1.312;2023-05-10T12:58:27;6.55;;;0.98;;
31728;SDS011;18309;43.658;1.312;2023-05-10T13:00:53;6.78;;;1.10;;
31728;SDS011;18309;43.658;1.312;2023-05-10T13:03:19;14.68;;;1.30;;
31728;SDS011;18309;43.658;1.312;2023-05-10T13:05:45;24.33;;;3.28;;
31728;SDS011;18309;43.658;1.312;2023-05-10T13:08:10;21.27;;;1.67;;
31728;SDS011;18309;43.658;1.312;2023-05-10T13:10:36;4.97;;;1.05;;
31728;SDS011;18309;43.658;1.312;2023-05-10T13:13:02;13.85;;;1.45;;
31728;SDS011;18309;43.658;1.312;2023-05-10T13:15:27;8.75;;;0.88;;
31728;SDS011;18309;43.658;1.312;2023-05-10T13:17:53;25.50;;;2.40;;
31728;SDS011;18309;43.658;1.312;2023-05-10T13:20:19;12.43;;;1.45;;
31728;SDS011;18309;43.658;1.312;2023-05-10T13:22:45;13.35;;;2.05;;
31728;SDS011;18309;43.658;1.312;2023-05-10T13:25:11;16.88;;;1.60;;
31728;SDS011;18309;43.658;1.312;2023-05-10T13:27:38;16.92;;;2.10;;
31728;SDS011;18309;43.658;1.312;2023-05-10T13:30:04;12.80;;;1.63;;
31728;SDS011;18309;43.658;1.312;2023-05-10T13:32:31;7.72;;;1.13;;
31728;SDS011;18309;43.658;1.312;2023-05-10T13:34:56;28.38;;;3.08;;
31728;SDS011;18309;43.658;1.312;2023-05-10T13:37:22;16.67;;;1.83;;
31728;SDS011;18309;43.658;1.312;2023-05-10T13:39:48;9.45;;;2.13;;
31728;SDS011;18309;43.658;1.312;2023-05-10T13:42:13;12.38;;;1.77;;
31728;SDS011;18309;43.658;1.312;2023-05-10T13:44:39;10.02;;;1.67;;
31728;SDS011;18309;43.658;1.312;2023-05-10T13:47:05;10.35;;;2.40;;
31728;SDS011;18309;43.658;1.312;2023-05-10T13:49:31;11.93;;;2.10;;
31728;SDS011;18309;43.658;1.312;2023-05-10T13:51:57;8.82;;;1.80;;
31728;SDS011;18309;43.658;1.312;2023-05-10T13:54:23;13.30;;;1.60;;
31728;SDS011;18309;43.658;1.312;2023-05-10T13:56:49;12.70;;;1.60;;
31728;SDS011;18309;43.658;1.312;2023-05-10T13:59:15;9.25;;;1.40;;
31728;SDS011;18309;43.658;1.312;2023-05-10T14:01:41;7.70;;;1.40;;
31728;SDS011;18309;43.658;1.312;2023-05-10T14:04:07;9.55;;;1.27;;
31728;SDS011;18309;43.658;1.312;2023-05-10T14:06:36;10.15;;;1.73;;
31728;SDS011;18309;43.658;1.312;2023-05-10T14:09:02;10.20;;;1.65;;
31728;SDS011;18309;43.658;1.312;2023-05-10T14:11:28;10.27;;;1.83;;
31728;SDS011;18309;43.658;1.312;2023-05-10T14:13:54;9.38;;;1.30;;
31728;SDS011;18309;43.658;1.312;2023-05-10T14:16:20;11.88;;;2.17;;
31728;SDS011;18309;43.658;1.312;2023-05-10T14:18:46;14.20;;;1.52;;
31728;SDS011;18309;43.658;1.312;2023-05-10T14:21:12;11.13;;;1.60;;
31728;SDS011;18309;43.658;1.312;2023-05-10T14:23:38;11.65;;;2.30;;
31728;SDS011;18309;43.658;1.312;2023-05-10T14:26:04;11.00;;;1.52;;
31728;SDS011;18309;43.658;1.312;2023-05-10T14:28:29;9.95;;;1.48;;
31728;SDS011;18309;43.658;1.312;2023-05-10T14:30:55;14.45;;;2.00;;
31728;SDS011;18309;43.658;1.312;2023-05-10T14:33:21;9.95;;;2.13;;
31728;SDS011;18309;43.658;1.312;2023-05-10T14:35:47;8.98;;;1.33;;
31728;SDS011;18309;43.658;1.312;2023-05-10T14:38:13;10.45;;;1.65;;
31728;SDS011;18309;43.658;1.312;2023-05-10T14:40:39;10.80;;;1.52;;
31728;SDS011;18309;43.658;1.312;2023-05-10T14:43:04;8.63;;;1.98;;
31728;SDS011;18309;43.658;1.312;2023-05-10T14:45:30;9.27;;;1.48;;
31728;SDS011;18309;43.658;1.312;2023-05-10T14:47:56;10.13;;;1.48;;
31728;SDS011;18309;43.658;1.312;2023-05-10T14:50:22;5.95;;;1.17;;
31728;SDS011;18309;43.658;1.312;2023-05-10T14:52:48;6.03;;;1.20;;
31728;SDS011;18309;43.658;1.312;2023-05-10T14:55:14;8.13;;;1.45;;
31728;SDS011;18309;43.658;1.312;2023-05-10T14:57:40;7.47;;;1.10;;
31728;SDS011;18309;43.658;1.312;2023-05-10T15:00:06;8.00;;;1.15;;
31728;SDS011;18309;43.658;1.312;2023-05-10T15:02:32;6.38;;;1.20;;
31728;SDS011;18309;43.658;1.312;2023-05-10T15:04:58;11.48;;;1.30;;
31728;SDS011;18309;43.658;1.312;2023-05-10T15:07:23;5.18;;;0.95;;
31728;SDS011;18309;43.658;1.312;2023-05-10T15:09:50;10.05;;;1.42;;
31728;SDS011;18309;43.658;1.312;2023-05-10T15:12:16;7.95;;;1.77;;
31728;SDS011;18309;43.658;1.312;2023-05-10T15:14:43;12.00;;;1.30;;